createdAt,value
2024-05-09T18:28:47.349Z,10.20
2024-05-09T18:31:49.034Z,9.88
2024-05-09T18:34:50.829Z,9.07
2024-05-09T18:40:54.752Z,9.57
2024-05-09T18:43:57.201Z,10.45
2024-05-09T18:46:58.923Z,9.55
2024-05-09T18:56:04.767Z,6.18
2024-05-09T18:59:06.470Z,6.55
2024-05-09T19:02:08.428Z,6.72
2024-05-09T19:05:10.247Z,5.90
2024-05-09T19:08:12.048Z,5.38
2024-05-09T19:11:13.769Z,6.65
2024-05-09T19:14:15.662Z,6.05
2024-05-09T19:17:17.354Z,5.65
2024-05-09T19:20:25.453Z,5.40
2024-05-09T19:23:38.078Z,5.28
2024-05-09T19:26:42.597Z,5.63
2024-05-09T19:29:44.249Z,5.70
2024-05-09T19:35:48.408Z,6.20
2024-05-09T19:38:51.500Z,7.00
2024-05-09T19:41:53.258Z,6.72
2024-05-09T19:44:55.201Z,6.05
2024-05-09T19:47:57.077Z,6.55
2024-05-09T19:50:58.982Z,5.88
2024-05-09T19:54:00.786Z,5.50
2024-05-09T19:57:02.483Z,5.95
2024-05-09T20:00:05.882Z,5.93
2024-05-09T20:03:08.312Z,5.95
2024-05-09T20:06:10.195Z,5.72
2024-05-09T20:12:13.830Z,5.75
2024-05-09T20:15:15.498Z,6.13
2024-05-09T20:21:19.043Z,5.88
2024-05-09T20:24:21.007Z,6.47
2024-05-09T20:27:22.686Z,5.40
2024-05-09T20:33:35.328Z,5.53
2024-05-09T20:36:37.118Z,5.55
2024-05-09T20:39:39.236Z,4.95
2024-05-09T20:42:41.264Z,5.90
2024-05-09T20:45:42.968Z,6.10
2024-05-09T20:48:44.795Z,6.15
2024-05-09T20:51:46.667Z,6.35
2024-05-09T20:54:48.654Z,6.53
2024-05-09T20:57:50.352Z,5.90
2024-05-09T21:00:52.169Z,5.82
2024-05-09T21:03:54.073Z,5.90
2024-05-09T21:06:55.926Z,5.93
2024-05-09T21:09:57.640Z,5.78
